Terminal Aerodrome Forecast
Issued by NWS St Louis, MO

Home | Current Version | Previous Version | Text Only | Print | Product List | Glossary On
Versions: 1 2 3 4 5 6 7 8 9 10 11 12 13 14 15 16 17 18 19 20 21 22 23 24 25 26 27 28 29 30 31 32 33 34
000
FTUS43 KLSX 070907 AAA
TAFSTL
TAF AMD
KSTL 070907Z 0709/0812 VRB04KT 1SM BR OVC003
     FM071300 VRB03KT 3SM BR OVC003
     FM071600 VRB03KT 4SM BR OVC011
     FM072200 VRB04KT P6SM OVC035
     FM080600 VRB04KT P6SM VCSH OVC025=

USA.gov is the U.S. government's official web portal to all federal, state and local government web resources and services.